Wilkes Barre Scranton International Airport
KAVP : now visible

Airfield :











YOU CAN JOIN US ON...

 
LOGIN :

Register | Disclaimer

   EN    FR    IT 

 









Legend :    VFR   Marginal VFR   IFR   Intensive IFR   Very Intensive IFR
Visi :
Ceiling :
>= 8 km
>= 3000ft
5 to 8 km
1000 to 3000 ft
1500m to 5 km
500 to 1000 ft
800 to 1500m
200 to 500 ft
< 800m
< 200 ft
Symbols :   Thunderstorms  Fog  Heavy snow  Heavy precipitations  Wind > 20 kt






- Airport Elevation : 962 ft
- IATA code : AVP


KAVP - Wilkes Barre Scranton International

CURRENT METAR :
  • 200354Z 34013G27KT 9SM SCT025 OVC043 M06/M13 A3005 RMK AO2 PK WND 32028/0344 SNB07E47 SLP184 P0000 T10611128

EXPIRED METARs :
  • 200254Z 34010KT 9SM BKN027 OVC037 M05/M10 A3000 RMK AO2 WSHFT 0204 SNB11E51 SLP169 P0001 60001 T10501100 53027
  • 200231Z 35010KT 3SM -SN BKN021 BKN028 OVC046 M05/M09 A2999 RMK AO2 WSHFT 0204 SNB11 P0001 T10501089
  • 200218Z 34011KT 1SM R04/5500VP6000FT -SN SCT012 BKN022 OVC032 M04/M08 A2998 RMK AO2 WSHFT 0204 SNB11 P0000 T10441078
  • 200212Z 33011KT 2 1/2SM R04/5500VP6000FT -SN FEW012 BKN025 OVC034 M03/M09 A2998 RMK AO2 SNB11 PRESRR P0000 T10331094
  • 200154Z 27008KT 10SM OVC036 M03/M11 A2996 RMK AO2 SLP155 T10331106
  • 200054Z 28013G19KT 10SM CLR M03/M11 A2995 RMK AO2 SLP149 T10331111

TAF KAVP
Valid from the 20 at 04:00 until the 21 at 00:00 UTC


200334Z 2004/2024 32010KT P6SM BKN025
TEMPO 2004/2005 4SM -SHSN
FM201200 34010KT P6SM SCT230



MET'MAP, your aeronautical weather chart ! - Copyright ORBIFLY December 2007 - Disclaimer

ORBIFLY MET'MAP TEAM :

Programming & Development : Alexandra Zaïnal
Concept & original design : Baudouin d'Aumeries
Assistance for programming : Marc-Olivier Méhu
Technical & hardware support : Manuel Goepfert

Contact : metmap@orbifly.com




SOURCES & CREDITS :

   NOAA       Earth
Advisory